Time;durP1;ratioP1;P1;durP2;ratioP2;P2;SDS_P1;SDS_P2;PMS_P1;PMS_P2;Temp;Humidity;BMP_temperature;BMP_pressure;BME280_temperature;BME280_humidity;BME280_pressure;Samples;Min_cycle;Max_cycle;Signal;HPM_P1;HPM_P2
2023/12/01 00:01:18;;;;;;;0.15;0.15;;;2.00;87.60;;;;;;4994832;28;20046;-71
2023/12/01 00:03:44;;;;;;;0.00;0.00;;;2.00;87.60;;;;;;5015219;28;20053;-71
2023/12/01 00:06:10;;;;;;;0.00;0.00;;;1.90;87.60;;;;;;5030500;28;20099;-71
2023/12/01 00:08:35;;;;;;;0.00;0.00;;;1.90;87.60;;;;;;5030453;28;20054;-71
2023/12/01 00:11:01;;;;;;;0.10;0.10;;;1.90;87.60;;;;;;5029943;28;20424;-71
2023/12/01 00:13:27;;;;;;;1.17;1.08;;;2.00;87.70;;;;;;5008019;28;20686;-71
2023/12/01 00:15:53;;;;;;;0.00;0.00;;;2.00;87.60;;;;;;5029537;28;20057;-71
2023/12/01 00:18:18;;;;;;;0.20;0.20;;;2.00;87.50;;;;;;5029608;28;20156;-71
2023/12/01 00:20:44;;;;;;;0.00;0.00;;;1.90;86.90;;;;;;5009739;28;20133;-71
2023/12/01 00:23:10;;;;;;;0.00;0.00;;;1.90;87.10;;;;;;5022669;28;20527;-71
2023/12/01 00:25:35;;;;;;;0.00;0.00;;;1.90;87.10;;;;;;5032657;28;20049;-71
2023/12/01 00:28:01;;;;;;;0.00;0.00;;;1.90;87.20;;;;;;5034097;28;20056;-70
2023/12/01 00:30:30;;;;;;;0.52;0.52;;;1.90;87.20;;;;;;5033247;28;20529;-71
2023/12/01 00:32:56;;;;;;;0.00;0.00;;;1.90;87.30;;;;;;5018945;28;20104;-71
2023/12/01 00:35:25;;;;;;;0.20;0.20;;;1.90;87.30;;;;;;5015347;28;20476;-72
2023/12/01 00:37:51;;;;;;;0.45;0.45;;;1.90;87.30;;;;;;5001726;28;20052;-72
2023/12/01 00:40:17;;;;;;;0.00;0.00;;;1.90;87.30;;;;;;5034422;28;20415;-71
2023/12/01 00:42:42;;;;;;;0.00;0.00;;;1.90;87.10;;;;;;5022518;28;20079;-71
2023/12/01 00:45:11;;;;;;;0.00;0.00;;;1.80;87.30;;;;;;5012963;28;20682;-74
2023/12/01 00:47:56;;;;;;;1.23;0.85;;;1.90;87.30;;;;;;5018026;28;20052;-72
2023/12/01 00:50:21;;;;;;;0.00;0.00;;;1.90;87.40;;;;;;5030653;28;20053;-72
2023/12/01 00:52:49;;;;;;;0.05;0.05;;;1.90;87.40;;;;;;5010089;28;20715;-71
2023/12/01 00:55:14;;;;;;;0.00;0.00;;;1.90;87.30;;;;;;5013601;28;20057;-71
2023/12/01 00:57:40;;;;;;;0.57;0.38;;;1.90;87.30;;;;;;5014302;28;20053;-71
2023/12/01 01:00:06;;;;;;;0.00;0.00;;;2.00;87.20;;;;;;5014252;28;20103;-71
2023/12/01 01:02:32;;;;;;;0.00;0.00;;;2.00;87.20;;;;;;5018389;28;20053;-71
2023/12/01 01:04:58;;;;;;;0.10;0.10;;;2.00;87.20;;;;;;5018187;28;20042;-71
2023/12/01 01:07:23;;;;;;;0.00;0.00;;;2.00;87.20;;;;;;5012734;28;20061;-71
2023/12/01 01:09:49;;;;;;;0.00;0.00;;;2.00;87.20;;;;;;5013589;28;20965;-71
2023/12/01 01:12:15;;;;;;;0.00;0.00;;;2.10;87.20;;;;;;5013458;28;20052;-71
2023/12/01 01:14:49;;;;;;;0.13;0.13;;;2.10;87.20;;;;;;5024559;28;20119;-71
2023/12/01 01:17:15;;;;;;;0.77;0.77;;;2.10;87.10;;;;;;5031898;28;20061;-71
2023/12/01 01:19:41;;;;;;;0.20;0.20;;;2.10;87.10;;;;;;5022117;28;20129;-71
2023/12/01 01:22:06;;;;;;;0.10;0.10;;;2.10;87.20;;;;;;5013123;28;20045;-71
2023/12/01 01:24:32;;;;;;;0.00;0.00;;;2.10;86.90;;;;;;5013329;28;20033;-71
2023/12/01 01:26:58;;;;;;;0.10;0.10;;;2.00;86.80;;;;;;5013323;28;20045;-71
2023/12/01 01:29:23;;;;;;;0.10;0.10;;;2.00;86.90;;;;;;5017985;28;20045;-71
2023/12/01 01:31:49;;;;;;;0.00;0.00;;;1.90;87.00;;;;;;5019848;28;20483;-71
2023/12/01 01:34:15;;;;;;;0.10;0.10;;;2.00;87.00;;;;;;5013647;28;20087;-71
2023/12/01 01:36:44;;;;;;;1.08;0.45;;;1.80;86.30;;;;;;5031752;28;20085;-71
2023/12/01 01:39:10;;;;;;;0.10;0.10;;;1.80;86.40;;;;;;5012106;28;20161;-71
2023/12/01 01:41:36;;;;;;;0.40;0.40;;;1.80;86.50;;;;;;5013160;28;20080;-71
2023/12/01 01:44:01;;;;;;;0.00;0.00;;;1.80;86.60;;;;;;5016305;28;20396;-71
2023/12/01 01:46:27;;;;;;;0.05;0.05;;;1.90;86.70;;;;;;5012913;28;20046;-71
2023/12/01 01:48:54;;;;;;;0.00;0.00;;;1.80;86.10;;;;;;5011751;28;20057;-71
2023/12/01 01:51:20;;;;;;;0.00;0.00;;;1.70;85.90;;;;;;5018727;28;20068;-71
2023/12/01 01:53:47;;;;;;;1.35;1.00;;;1.60;85.80;;;;;;5013499;28;20050;-71
2023/12/01 01:56:14;;;;;;;0.98;0.95;;;1.60;85.50;;;;;;5023961;28;20049;-71
2023/12/01 01:58:41;;;;;;;0.30;0.30;;;1.50;85.60;;;;;;5028621;28;20061;-71
2023/12/01 02:01:07;;;;;;;1.95;1.40;;;1.40;85.80;;;;;;5015045;28;20048;-71
2023/12/01 02:03:34;;;;;;;0.10;0.10;;;1.30;85.70;;;;;;5011218;28;20129;-71
2023/12/01 02:06:06;;;;;;;0.10;0.10;;;1.20;85.90;;;;;;5012628;28;20034;-72
2023/12/01 02:08:33;;;;;;;0.10;0.10;;;1.20;86.00;;;;;;5012028;28;20042;-71
2023/12/01 02:11:00;;;;;;;0.10;0.10;;;1.20;86.30;;;;;;5012459;28;20049;-71
2023/12/01 02:13:26;;;;;;;1.00;0.63;;;1.10;86.50;;;;;;5012661;28;20042;-72
2023/12/01 02:15:53;;;;;;;0.10;0.10;;;1.10;86.40;;;;;;5008508;28;20077;-71
2023/12/01 02:18:26;;;;;;;0.57;0.57;;;1.00;86.80;;;;;;5009508;28;20558;-71
2023/12/01 02:20:52;;;;;;;0.10;0.10;;;1.10;86.80;;;;;;5010784;28;20054;-71
2023/12/01 02:23:18;;;;;;;4.00;2.38;;;1.10;86.70;;;;;;5011135;28;20153;-72
2023/12/01 02:25:44;;;;;;;0.10;0.10;;;1.00;86.80;;;;;;5012903;28;20132;-72
2023/12/01 02:28:10;;;;;;;0.10;0.10;;;1.00;86.50;;;;;;4995837;28;20049;-71
2023/12/01 02:30:36;;;;;;;0.10;0.10;;;0.90;86.40;;;;;;4994699;28;20424;-71
2023/12/01 02:33:02;;;;;;;0.52;0.52;;;0.90;86.30;;;;;;5028905;28;20128;-71
2023/12/01 02:35:29;;;;;;;0.65;0.65;;;0.80;86.30;;;;;;5028042;28;20045;-71
2023/12/01 02:37:59;;;;;;;0.10;0.10;;;0.70;86.30;;;;;;5026317;28;20056;-71
2023/12/01 02:40:27;;;;;;;0.10;0.10;;;0.70;86.60;;;;;;5012820;28;20464;-71
2023/12/01 02:42:53;;;;;;;0.10;0.10;;;0.80;86.70;;;;;;5015124;28;20691;-71
2023/12/01 02:45:20;;;;;;;0.10;0.10;;;0.90;86.90;;;;;;4995363;28;20088;-72
2023/12/01 02:47:49;;;;;;;0.20;0.20;;;0.90;86.70;;;;;;5011381;28;20419;-71
2023/12/01 02:50:16;;;;;;;0.30;0.30;;;0.80;86.90;;;;;;5010663;28;20042;-71
2023/12/01 02:52:42;;;;;;;0.10;0.10;;;0.80;87.00;;;;;;5013619;28;20056;-71
2023/12/01 02:55:09;;;;;;;0.10;0.10;;;0.70;86.80;;;;;;5021678;28;20420;-71
2023/12/01 02:57:41;;;;;;;0.40;0.40;;;0.70;87.10;;;;;;5022539;28;20520;-72
2023/12/01 03:00:13;;;;;;;0.05;0.05;;;0.60;87.20;;;;;;5011801;28;20046;-71
2023/12/01 03:02:45;;;;;;;0.00;0.00;;;0.60;87.20;;;;;;5009148;28;20523;-71
2023/12/01 03:05:11;;;;;;;0.35;0.35;;;0.60;87.20;;;;;;5011415;28;20050;-72
2023/12/01 03:07:37;;;;;;;1.65;1.17;;;0.60;87.30;;;;;;4997298;28;20393;-71
2023/12/01 03:10:05;;;;;;;0.10;0.10;;;0.60;87.30;;;;;;5011278;28;20083;-72
2023/12/01 03:12:30;;;;;;;0.10;0.10;;;0.60;87.40;;;;;;5013283;28;20052;-71
2023/12/01 03:14:58;;;;;;;0.10;0.10;;;0.60;87.50;;;;;;5011617;28;20062;-71
2023/12/01 03:17:24;;;;;;;0.00;0.00;;;0.60;87.50;;;;;;4994712;28;20133;-71
2023/12/01 03:19:53;;;;;;;0.30;0.30;;;0.70;87.30;;;;;;5011978;28;20574;-72
2023/12/01 03:22:19;;;;;;;0.10;0.10;;;0.60;87.00;;;;;;5012011;28;20133;-71
2023/12/01 03:24:47;;;;;;;0.68;0.68;;;0.60;87.00;;;;;;5011281;28;20038;-71
2023/12/01 03:27:18;;;;;;;0.10;0.10;;;0.60;87.10;;;;;;5011449;28;20042;-71
2023/12/01 03:29:44;;;;;;;0.13;0.13;;;0.60;87.10;;;;;;5011450;28;20046;-71
2023/12/01 03:32:09;;;;;;;0.03;0.03;;;0.70;87.00;;;;;;5019135;28;20111;-71
2023/12/01 03:34:35;;;;;;;0.00;0.00;;;0.70;87.10;;;;;;5012065;28;20532;-71
2023/12/01 03:37:02;;;;;;;0.05;0.05;;;0.70;86.90;;;;;;5010655;28;20046;-71
2023/12/01 03:39:27;;;;;;;0.80;0.80;;;0.70;87.00;;;;;;5011966;28;20057;-71
2023/12/01 03:41:53;;;;;;;0.17;0.17;;;0.80;86.90;;;;;;5017551;28;20056;-71
2023/12/01 03:44:19;;;;;;;0.08;0.08;;;0.70;86.80;;;;;;5021214;28;20149;-71
2023/12/01 03:46:44;;;;;;;0.10;0.10;;;0.70;86.90;;;;;;5011066;28;20045;-71
2023/12/01 03:49:10;;;;;;;3.20;1.17;;;0.70;86.80;;;;;;5010568;28;20053;-71
2023/12/01 03:51:37;;;;;;;0.00;0.00;;;0.70;86.80;;;;;;5014344;28;20140;-71
2023/12/01 03:54:02;;;;;;;0.00;0.00;;;0.70;86.90;;;;;;5021742;28;20144;-72
2023/12/01 03:56:28;;;;;;;4.28;3.00;;;0.70;86.80;;;;;;5010597;28;20130;-72
2023/12/01 03:58:55;;;;;;;0.00;0.00;;;0.70;86.70;;;;;;5014645;28;20042;-72
2023/12/01 04:01:22;;;;;;;0.00;0.00;;;0.60;86.30;;;;;;5013842;28;20088;-70
2023/12/01 04:03:48;;;;;;;0.00;0.00;;;0.50;86.40;;;;;;5013983;28;20557;-70
2023/12/01 04:06:13;;;;;;;0.05;0.05;;;0.50;86.40;;;;;;5015205;28;20050;-72
2023/12/01 04:08:39;;;;;;;0.10;0.10;;;0.50;86.40;;;;;;5015035;28;20046;-73
2023/12/01 04:11:08;;;;;;;0.10;0.10;;;0.50;86.30;;;;;;5014970;28;20089;-72
2023/12/01 04:13:35;;;;;;;0.85;0.85;;;0.40;86.40;;;;;;5015350;28;20285;-72
2023/12/01 04:16:00;;;;;;;0.00;0.00;;;0.50;86.50;;;;;;5012770;28;20041;-72
2023/12/01 04:18:29;;;;;;;0.00;0.00;;;0.40;86.50;;;;;;5012468;28;20141;-70
2023/12/01 04:20:58;;;;;;;0.00;0.00;;;0.50;86.60;;;;;;5015227;28;20053;-70
2023/12/01 04:23:24;;;;;;;0.10;0.10;;;0.50;86.70;;;;;;5014375;28;20559;-71
2023/12/01 04:25:50;;;;;;;0.00;0.00;;;0.60;86.70;;;;;;5027565;28;20061;-71
2023/12/01 04:28:16;;;;;;;0.00;0.00;;;0.50;86.70;;;;;;5011224;28;20054;-71
2023/12/01 04:30:45;;;;;;;0.00;0.00;;;0.50;86.70;;;;;;5011346;28;20046;-71
2023/12/01 04:33:13;;;;;;;0.10;0.10;;;0.50;86.70;;;;;;5031284;28;20054;-71
2023/12/01 04:35:39;;;;;;;0.00;0.00;;;0.50;86.70;;;;;;5015860;28;20104;-71
2023/12/01 04:38:05;;;;;;;0.00;0.00;;;0.40;86.70;;;;;;5013362;28;20121;-71
2023/12/01 04:40:31;;;;;;;0.10;0.10;;;0.40;86.70;;;;;;5015952;28;20041;-71
2023/12/01 04:42:58;;;;;;;0.00;0.00;;;0.30;86.70;;;;;;5034310;28;20492;-71
2023/12/01 04:45:31;;;;;;;0.00;0.00;;;0.40;86.70;;;;;;5022518;28;20041;-71
2023/12/01 04:47:57;;;;;;;0.10;0.10;;;0.30;86.70;;;;;;5008595;28;20579;-71
2023/12/01 04:50:28;;;;;;;0.00;0.00;;;0.30;86.60;;;;;;4996868;28;20495;-71
2023/12/01 04:52:55;;;;;;;0.10;0.10;;;0.30;86.70;;;;;;5013938;28;20161;-71
2023/12/01 04:55:24;;;;;;;0.00;0.00;;;0.30;86.60;;;;;;5013811;28;20100;-71
2023/12/01 04:57:50;;;;;;;0.00;0.00;;;0.30;86.70;;;;;;5013219;28;20108;-71
2023/12/01 05:00:25;;;;;;;0.00;0.00;;;0.30;86.70;;;;;;5012026;28;20050;-71
2023/12/01 05:02:58;;;;;;;0.00;0.00;;;0.30;86.70;;;;;;5033350;28;20125;-71
2023/12/01 05:05:28;;;;;;;0.00;0.00;;;0.20;86.70;;;;;;5020118;28;20057;-71
2023/12/01 05:07:57;;;;;;;0.00;0.00;;;0.30;86.70;;;;;;4992668;28;20050;-71
2023/12/01 05:10:30;;;;;;;0.10;0.10;;;0.30;86.70;;;;;;5007872;28;20100;-70
2023/12/01 05:13:03;;;;;;;0.10;0.10;;;0.30;86.60;;;;;;5013177;28;20696;-71
2023/12/01 05:15:31;;;;;;;0.05;0.05;;;0.30;86.60;;;;;;5015330;28;20100;-71
2023/12/01 05:18:01;;;;;;;0.00;0.00;;;0.30;86.60;;;;;;5008351;28;20066;-71
2023/12/01 05:20:27;;;;;;;0.28;0.28;;;0.30;86.40;;;;;;5033520;28;20049;-71
2023/12/01 05:23:05;;;;;;;0.00;0.00;;;0.30;86.30;;;;;;5030737;28;20124;-71
2023/12/01 05:25:35;;;;;;;0.00;0.00;;;0.30;86.30;;;;;;5018478;28;20046;-71
2023/12/01 05:28:10;;;;;;;0.10;0.10;;;0.20;86.00;;;;;;5027434;28;20496;-71
2023/12/01 05:30:38;;;;;;;0.10;0.10;;;0.20;86.10;;;;;;5012989;28;20049;-71
2023/12/01 05:33:04;;;;;;;0.00;0.00;;;0.20;86.00;;;;;;5032436;28;20211;-71
2023/12/01 05:35:31;;;;;;;0.00;0.00;;;0.20;86.00;;;;;;5016550;28;20038;-71
2023/12/01 05:37:57;;;;;;;2.05;1.30;;;0.20;85.90;;;;;;5011905;28;20088;-71
2023/12/01 05:40:24;;;;;;;0.00;0.00;;;0.20;86.00;;;;;;5021954;28;20482;-71
2023/12/01 05:42:54;;;;;;;0.00;0.00;;;0.10;86.00;;;;;;5012507;28;20096;-70
2023/12/01 05:45:26;;;;;;;0.08;0.08;;;0.10;85.90;;;;;;5012365;28;20128;-71
2023/12/01 05:47:52;;;;;;;;;;;0.10;85.90;;;;;;5012632;28;20484;-71
2023/12/01 05:50:26;;;;;;;0.10;0.10;;;0.00;85.50;;;;;;5011151;28;19925;-70
2023/12/01 05:52:53;;;;;;;0.00;0.00;;;0.00;85.50;;;;;;5012024;28;20451;-71
2023/12/01 05:55:21;;;;;;;0.10;0.10;;;0.00;85.50;;;;;;5013496;28;20124;-70
2023/12/01 05:57:55;;;;;;;0.00;0.00;;;0.00;85.50;;;;;;5013853;28;20054;-70
2023/12/01 06:00:31;;;;;;;0.10;0.10;;;0.00;85.60;;;;;;5012269;28;20116;-70
2023/12/01 06:02:58;;;;;;;0.10;0.10;;;0.00;85.30;;;;;;5026807;28;20056;-70
2023/12/01 06:05:24;;;;;;;0.00;0.00;;;0.00;85.40;;;;;;5013230;28;20053;-70
2023/12/01 06:07:54;;;;;;;0.00;0.00;;;0.00;85.30;;;;;;5019780;28;20046;-70
2023/12/01 06:10:21;;;;;;;0.10;0.10;;;0.00;85.40;;;;;;5013609;28;20121;-70
2023/12/01 06:12:47;;;;;;;0.05;0.05;;;0.00;85.40;;;;;;5020126;28;20888;-71
2023/12/01 06:15:14;;;;;;;0.10;0.10;;;0.00;85.50;;;;;;5022494;28;20113;-71
2023/12/01 06:17:42;;;;;;;0.00;0.00;;;-3276.70;85.50;;;;;;5013229;28;20119;-71
2023/12/01 06:20:19;;;;;;;0.20;0.20;;;-3276.70;85.50;;;;;;5001901;28;20045;-70
2023/12/01 06:22:49;;;;;;;0.00;0.00;;;-3276.70;85.60;;;;;;5013892;28;20046;-70
2023/12/01 06:25:16;;;;;;;1.17;1.08;;;-3276.70;85.60;;;;;;5016273;28;20049;-70
2023/12/01 06:27:42;;;;;;;0.00;0.00;;;-3276.70;85.60;;;;;;5022048;28;20077;-71
2023/12/01 06:30:12;;;;;;;0.00;0.00;;;-3276.70;85.60;;;;;;5012416;28;20054;-71
2023/12/01 06:32:39;;;;;;;0.00;0.00;;;-3276.70;85.50;;;;;;5011242;28;20042;-71
2023/12/01 06:35:08;;;;;;;0.10;0.10;;;-3276.70;85.60;;;;;;5011643;28;20046;-71
2023/12/01 06:37:34;;;;;;;0.00;0.00;;;-3276.60;85.60;;;;;;5005859;28;20786;-71
2023/12/01 06:39:59;;;;;;;0.00;0.00;;;-3276.60;85.50;;;;;;5007432;28;20054;-71
2023/12/01 06:42:25;;;;;;;1.30;1.20;;;-3276.60;85.70;;;;;;5013605;28;20049;-71
2023/12/01 06:44:51;;;;;;;1.38;1.27;;;-3276.60;85.70;;;;;;5007361;28;20060;-69
2023/12/01 06:47:16;;;;;;;0.00;0.00;;;-3276.60;85.60;;;;;;5007331;28;20058;-70
2023/12/01 06:49:42;;;;;;;0.00;0.00;;;-3276.60;85.50;;;;;;5009962;28;20090;-71
2023/12/01 06:52:08;;;;;;;0.00;0.00;;;-3276.60;85.40;;;;;;5018795;28;20049;-71
2023/12/01 06:54:33;;;;;;;0.00;0.00;;;-3276.60;85.30;;;;;;5014449;28;20082;-72
2023/12/01 06:56:59;;;;;;;0.00;0.00;;;-3276.60;85.30;;;;;;5010622;28;20053;-72
2023/12/01 06:59:25;;;;;;;0.00;0.00;;;-3276.60;85.30;;;;;;5006527;28;20054;-72
2023/12/01 07:01:51;;;;;;;0.22;0.22;;;-3276.60;85.30;;;;;;5006434;28;20076;-72
2023/12/01 07:04:18;;;;;;;0.00;0.00;;;-3276.60;85.20;;;;;;5007610;28;20062;-72
2023/12/01 07:06:46;;;;;;;0.00;0.00;;;-3276.50;85.20;;;;;;5009232;28;20107;-71
2023/12/01 07:09:17;;;;;;;0.00;0.00;;;-3276.50;85.30;;;;;;4999154;28;20085;-71
2023/12/01 07:11:44;;;;;;;0.10;0.10;;;-3276.50;85.20;;;;;;5003454;28;20050;-69
2023/12/01 07:14:12;;;;;;;0.00;0.00;;;-3276.40;85.30;;;;;;5000982;28;20104;-69
2023/12/01 07:16:42;;;;;;;0.00;0.00;;;-3276.40;85.40;;;;;;5003927;28;20112;-67
2023/12/01 07:19:08;;;;;;;0.00;0.00;;;-3276.30;85.40;;;;;;5001547;28;20135;-71
2023/12/01 07:21:34;;;;;;;0.00;0.00;;;-3276.40;86.40;;;;;;5003860;28;20393;-71
2023/12/01 07:24:02;;;;;;;0.00;0.00;;;-3276.60;86.80;;;;;;5002577;28;20052;-71
2023/12/01 07:26:28;;;;;;;0.00;0.00;;;-3276.50;86.70;;;;;;5002879;28;20073;-70
2023/12/01 07:28:54;;;;;;;1.65;1.45;;;-3276.40;86.60;;;;;;5000476;28;20049;-71
2023/12/01 07:31:19;;;;;;;0.00;0.00;;;-3276.40;86.60;;;;;;5004352;28;20049;-71
2023/12/01 07:33:46;;;;;;;0.25;0.25;;;-3276.30;86.40;;;;;;5004403;28;20136;-71
2023/12/01 07:36:12;;;;;;;0.00;0.00;;;-3276.20;86.40;;;;;;5004683;28;20054;-70
2023/12/01 07:38:38;;;;;;;0.10;0.10;;;-3276.20;86.30;;;;;;5005530;28;20096;-70
2023/12/01 07:41:03;;;;;;;0.00;0.00;;;-3276.10;86.20;;;;;;5005379;28;20562;-71
2023/12/01 07:43:29;;;;;;;1.52;0.43;;;-3276.10;86.30;;;;;;5006396;28;20124;-71
2023/12/01 07:45:58;;;;;;;0.00;0.00;;;0.40;95.40;;;;;;5007639;28;20069;-68
2023/12/01 07:48:23;;;;;;;0.00;0.00;;;0.30;90.40;;;;;;5015792;28;20050;-67
2023/12/01 07:50:49;;;;;;;0.20;0.20;;;0.20;89.70;;;;;;5007992;28;20056;-69
2023/12/01 07:53:16;;;;;;;0.00;0.00;;;0.10;89.50;;;;;;5013544;28;20412;-68
2023/12/01 07:55:42;;;;;;;0.00;0.00;;;0.00;89.30;;;;;;5018888;28;20635;-68
2023/12/01 07:58:09;;;;;;;0.00;0.00;;;-3276.70;89.10;;;;;;5020081;28;20108;-68
2023/12/01 08:00:40;;;;;;;0.25;0.25;;;-3276.60;88.80;;;;;;5016047;28;20085;-69
2023/12/01 08:03:09;;;;;;;0.00;0.00;;;-3276.50;88.70;;;;;;5034914;28;20046;-69
2023/12/01 08:05:39;;;;;;;0.00;0.00;;;-3276.50;88.50;;;;;;5018639;28;20168;-70
2023/12/01 08:08:04;;;;;;;0.90;0.90;;;-3276.50;88.40;;;;;;5014440;28;20064;-70
2023/12/01 08:10:30;;;;;;;0.00;0.00;;;-3276.50;88.30;;;;;;5014422;28;20404;-70
2023/12/01 08:12:56;;;;;;;0.00;0.00;;;-3276.60;88.20;;;;;;5016694;28;20081;-70
2023/12/01 08:15:22;;;;;;;0.10;0.10;;;-3276.60;88.20;;;;;;5014179;28;20042;-70
2023/12/01 08:17:49;;;;;;;0.10;0.10;;;-3276.60;88.20;;;;;;5014656;28;20163;-69
2023/12/01 08:20:16;;;;;;;0.00;0.00;;;-3276.70;88.10;;;;;;5014909;28;20496;-69
2023/12/01 08:22:48;;;;;;;0.00;0.00;;;-3276.70;87.90;;;;;;5012604;28;20046;-69
2023/12/01 08:25:14;;;;;;;0.00;0.00;;;-3276.60;87.60;;;;;;5012156;28;20178;-69
2023/12/01 08:27:41;;;;;;;0.10;0.10;;;-3276.60;87.60;;;;;;5014346;28;20172;-70
2023/12/01 08:30:07;;;;;;;0.82;0.82;;;-3276.70;87.50;;;;;;5011010;28;20057;-69
2023/12/01 08:32:33;;;;;;;0.00;0.00;;;-3276.70;87.40;;;;;;5013337;28;20053;-70
2023/12/01 08:34:59;;;;;;;0.00;0.00;;;-3276.70;87.30;;;;;;5012379;28;20045;-70
2023/12/01 08:37:25;;;;;;;0.10;0.10;;;-3276.70;87.10;;;;;;5005056;28;20477;-69
2023/12/01 08:39:51;;;;;;;0.10;0.10;;;-3276.70;87.20;;;;;;5011474;28;20140;-69
2023/12/01 08:42:18;;;;;;;0.10;0.10;;;0.00;87.20;;;;;;5008713;28;20081;-69
2023/12/01 08:44:44;;;;;;;0.00;0.00;;;0.00;87.20;;;;;;5016872;28;20125;-69
2023/12/01 08:47:11;;;;;;;0.00;0.00;;;0.00;87.30;;;;;;5017558;28;20054;-69
2023/12/01 08:49:37;;;;;;;0.00;0.00;;;0.10;87.20;;;;;;5014409;28;20084;-70
2023/12/01 08:52:03;;;;;;;0.00;0.00;;;0.10;87.20;;;;;;5018575;28;20060;-68
2023/12/01 08:54:28;;;;;;;0.10;0.10;;;0.10;87.30;;;;;;5018715;28;20049;-70
2023/12/01 08:56:54;;;;;;;0.00;0.00;;;0.20;87.30;;;;;;5019145;28;20448;-69
2023/12/01 08:59:19;;;;;;;0.10;0.10;;;0.30;87.30;;;;;;5020728;28;20040;-68
2023/12/01 09:01:45;;;;;;;0.03;0.03;;;0.30;87.30;;;;;;5015658;28;20044;-68
2023/12/01 09:04:11;;;;;;;0.00;0.00;;;0.40;87.00;;;;;;5021084;28;20046;-68
2023/12/01 09:06:38;;;;;;;0.00;0.00;;;0.30;86.80;;;;;;5010001;28;20038;-68
2023/12/01 09:09:04;;;;;;;0.20;0.20;;;0.30;86.80;;;;;;5018363;28;20098;-68
2023/12/01 09:11:30;;;;;;;0.00;0.00;;;0.40;86.80;;;;;;5009511;28;20065;-68
2023/12/01 09:13:56;;;;;;;0.00;0.00;;;0.40;86.90;;;;;;5011229;28;20073;-68
2023/12/01 09:16:23;;;;;;;0.57;0.57;;;0.40;86.90;;;;;;5011200;28;20625;-68
2023/12/01 09:18:50;;;;;;;0.10;0.10;;;0.40;86.90;;;;;;5012313;28;20059;-68
2023/12/01 09:21:16;;;;;;;0.10;0.10;;;0.50;86.80;;;;;;5009572;28;20064;-69
2023/12/01 09:23:41;;;;;;;0.00;0.00;;;0.60;86.90;;;;;;5018266;28;20045;-69
2023/12/01 09:26:07;;;;;;;0.00;0.00;;;0.50;86.70;;;;;;5012245;28;20048;-68
2023/12/01 09:28:36;;;;;;;0.10;0.10;;;0.50;86.60;;;;;;5012458;28;20120;-67
2023/12/01 09:31:05;;;;;;;0.05;0.05;;;0.50;86.30;;;;;;5007667;28;20042;-65
2023/12/01 09:33:30;;;;;;;0.28;0.28;;;0.40;85.70;;;;;;5018753;28;20045;-68
2023/12/01 09:35:56;;;;;;;3.70;1.27;;;0.30;85.10;;;;;;5017280;28;20045;-68
2023/12/01 09:38:22;;;;;;;0.10;0.10;;;0.20;85.30;;;;;;5007920;28;20080;-68
2023/12/01 09:40:47;;;;;;;0.30;0.30;;;0.20;85.30;;;;;;5014384;28;20029;-67
2023/12/01 09:43:18;;;;;;;1.00;0.85;;;0.20;85.30;;;;;;5010559;28;20049;-68
2023/12/01 09:45:44;;;;;;;0.00;0.00;;;0.20;85.20;;;;;;5010835;28;20437;-67
2023/12/01 09:48:11;;;;;;;0.10;0.10;;;0.10;85.20;;;;;;5012441;28;20508;-66
2023/12/01 09:50:37;;;;;;;3.00;1.55;;;0.10;85.30;;;;;;5014869;28;20046;-68
2023/12/01 09:53:03;;;;;;;0.00;0.00;;;0.10;85.30;;;;;;5026658;28;20044;-68
2023/12/01 09:55:29;;;;;;;0.00;0.00;;;0.10;85.40;;;;;;5021655;28;20480;-68
2023/12/01 09:57:56;;;;;;;0.00;0.00;;;0.10;85.50;;;;;;5008473;28;20045;-67
2023/12/01 10:00:22;;;;;;;0.10;0.10;;;0.10;85.60;;;;;;5013435;28;20510;-68
2023/12/01 10:02:48;;;;;;;0.00;0.00;;;0.10;85.50;;;;;;5010796;28;20041;-67
2023/12/01 10:05:18;;;;;;;0.00;0.00;;;0.10;85.50;;;;;;5017122;28;20403;-68
2023/12/01 10:07:44;;;;;;;0.63;0.63;;;0.10;85.40;;;;;;5017337;28;20057;-68
2023/12/01 10:10:25;;;;;;;0.10;0.10;;;0.10;85.40;;;;;;5011393;28;20103;-67
2023/12/01 10:12:58;;;;;;;1.40;1.08;;;0.10;85.40;;;;;;5008586;28;20049;-68
2023/12/01 10:15:27;;;;;;;0.00;0.00;;;0.00;85.40;;;;;;5011226;28;20046;-68
2023/12/01 10:17:54;;;;;;;0.10;0.10;;;0.00;85.30;;;;;;5008713;28;20443;-69
2023/12/01 10:20:23;;;;;;;0.10;0.10;;;0.10;85.30;;;;;;5010044;28;20046;-68
2023/12/01 10:22:50;;;;;;;0.25;0.25;;;0.10;85.40;;;;;;5005344;28;20058;-68
2023/12/01 10:25:16;;;;;;;0.00;0.00;;;0.20;85.60;;;;;;5030455;28;20111;-68
2023/12/01 10:27:54;;;;;;;0.10;0.10;;;0.30;85.60;;;;;;5020545;28;20136;-65
2023/12/01 10:30:19;;;;;;;0.10;0.10;;;0.40;85.60;;;;;;5011152;28;20045;-69
2023/12/01 10:32:47;;;;;;;0.00;0.00;;;0.40;85.70;;;;;;5010440;28;20809;-68
2023/12/01 10:35:13;;;;;;;0.20;0.20;;;0.50;85.70;;;;;;5007434;28;20065;-68
2023/12/01 10:37:39;;;;;;;0.10;0.10;;;0.60;85.60;;;;;;5017894;28;20504;-69
2023/12/01 10:40:05;;;;;;;0.08;0.08;;;0.60;85.30;;;;;;5008550;28;20054;-68
2023/12/01 10:42:34;;;;;;;1.48;1.38;;;0.60;85.10;;;;;;5007193;28;20050;-68
2023/12/01 10:45:01;;;;;;;0.08;0.08;;;0.60;84.90;;;;;;5008902;28;20080;-68
2023/12/01 10:47:32;;;;;;;0.03;0.03;;;0.60;84.80;;;;;;5008853;28;20073;-68
2023/12/01 10:49:58;;;;;;;0.00;0.00;;;0.60;84.80;;;;;;4992962;28;20046;-68
2023/12/01 10:52:27;;;;;;;0.10;0.10;;;0.60;85.00;;;;;;5010380;28;20304;-67
2023/12/01 10:54:53;;;;;;;0.00;0.00;;;0.70;85.10;;;;;;5009607;28;20467;-70
2023/12/01 10:57:29;;;;;;;0.00;0.00;;;0.70;85.10;;;;;;5007815;28;20042;-68
2023/12/01 10:59:59;;;;;;;0.22;0.22;;;0.80;84.90;;;;;;4999223;28;20049;-66
2023/12/01 11:02:25;;;;;;;0.75;0.75;;;0.80;84.60;;;;;;5009236;28;20147;-68
2023/12/01 11:04:51;;;;;;;0.32;0.32;;;0.80;84.40;;;;;;5010098;28;20033;-68
2023/12/01 11:07:29;;;;;;;0.00;0.00;;;0.70;84.10;;;;;;5001628;28;20038;-68
2023/12/01 11:10:07;;;;;;;0.10;0.10;;;0.80;84.20;;;;;;5003671;28;20054;-69
2023/12/01 11:13:00;;;;;;;0.20;0.20;;;0.70;83.90;;;;;;5002849;28;20053;-68
2023/12/01 11:15:28;;;;;;;0.00;0.00;;;0.70;84.10;;;;;;5017804;28;20084;-68
2023/12/01 11:17:55;;;;;;;0.00;0.00;;;0.80;84.10;;;;;;5005843;28;20081;-67
2023/12/01 11:20:30;;;;;;;0.15;0.15;;;0.70;83.90;;;;;;5007906;28;20046;-67
2023/12/01 11:23:09;;;;;;;0.10;0.10;;;0.80;84.10;;;;;;5006214;28;20042;-66
2023/12/01 11:25:45;;;;;;;0.08;0.08;;;0.70;83.70;;;;;;5004373;28;20049;-70
2023/12/01 11:28:20;;;;;;;0.00;0.00;;;0.80;84.10;;;;;;4987097;28;20893;-69
2023/12/01 11:31:10;;;;;;;0.22;0.22;;;0.80;84.20;;;;;;5006420;28;20117;-70
2023/12/01 11:33:52;;;;;;;0.00;0.00;;;0.90;84.40;;;;;;5005047;28;20053;-70
2023/12/01 11:36:32;;;;;;;0.00;0.00;;;1.00;84.40;;;;;;5004618;28;20038;-70
2023/12/01 11:41:41;;;;;;;0.00;0.00;;;1.10;84.30;;;;;;5005729;28;20042;-69
2023/12/01 11:44:24;;;;;;;0.00;0.00;;;1.20;84.40;;;;;;5007496;28;20054;-66
2023/12/01 11:46:59;;;;;;;0.00;0.00;;;1.10;84.20;;;;;;5008536;28;20046;-66
2023/12/01 11:49:32;;;;;;;0.00;0.00;;;1.00;83.60;;;;;;5014163;28;20053;-67
2023/12/01 11:52:03;;;;;;;0.25;0.25;;;0.90;83.60;;;;;;5006914;28;21600;-66
2023/12/01 11:54:36;;;;;;;1.38;1.27;;;0.90;83.50;;;;;;5005933;28;20053;-68
2023/12/01 11:57:05;;;;;;;0.10;0.10;;;0.90;83.40;;;;;;5010912;28;20045;-68
2023/12/01 11:59:31;;;;;;;0.00;0.00;;;0.90;83.50;;;;;;5010438;28;20045;-66
2023/12/01 12:01:56;;;;;;;0.10;0.10;;;0.90;83.60;;;;;;5009133;28;20105;-66
2023/12/01 12:04:23;;;;;;;0.00;0.00;;;1.00;83.80;;;;;;5005326;28;20045;-66
2023/12/01 12:06:49;;;;;;;0.00;0.00;;;1.00;83.70;;;;;;5006713;28;20125;-66
2023/12/01 12:09:18;;;;;;;0.13;0.13;;;1.30;84.70;;;;;;5004816;28;20061;-65
2023/12/01 12:11:49;;;;;;;0.00;0.00;;;1.60;84.60;;;;;;5004262;28;20038;-66
2023/12/01 12:14:15;;;;;;;0.15;0.15;;;1.60;84.10;;;;;;5013218;28;20049;-66
2023/12/01 12:16:41;;;;;;;0.00;0.00;;;2.30;87.10;;;;;;5025722;28;20602;-67
2023/12/01 12:19:08;;;;;;;0.00;0.00;;;2.00;84.70;;;;;;5010485;28;20062;-67
2023/12/01 12:21:35;;;;;;;0.08;0.08;;;1.90;84.20;;;;;;5017548;28;20461;-67
2023/12/01 12:24:00;;;;;;;0.60;0.60;;;1.70;83.30;;;;;;5010557;28;20034;-66
2023/12/01 12:26:28;;;;;;;0.05;0.05;;;1.50;82.70;;;;;;5017128;28;20056;-66
2023/12/01 12:28:55;;;;;;;0.10;0.10;;;1.30;81.90;;;;;;5011844;28;20730;-69
2023/12/01 12:31:25;;;;;;;0.00;0.00;;;1.30;82.80;;;;;;5006041;28;20041;-69
2023/12/01 12:33:58;;;;;;;0.30;0.30;;;1.30;83.40;;;;;;5008342;28;20054;-68
2023/12/01 12:36:28;;;;;;;0.82;0.82;;;1.20;83.50;;;;;;5009594;28;20050;-68
2023/12/01 12:39:03;;;;;;;0.03;0.03;;;1.10;83.60;;;;;;5007975;28;20049;-69
2023/12/01 12:41:36;;;;;;;0.70;0.70;;;0.90;83.60;;;;;;5008254;28;20203;-68
2023/12/01 12:44:07;;;;;;;0.00;0.00;;;0.90;83.60;;;;;;5007459;28;20049;-69
2023/12/01 12:46:34;;;;;;;0.10;0.10;;;0.90;83.70;;;;;;4998555;28;20515;-68
2023/12/01 12:49:09;;;;;;;0.22;0.22;;;1.00;83.90;;;;;;5009845;28;20057;-69
2023/12/01 12:51:36;;;;;;;0.08;0.08;;;1.00;84.00;;;;;;5023631;28;20049;-69
2023/12/01 12:54:03;;;;;;;0.98;0.98;;;1.10;84.10;;;;;;5008965;28;20052;-69
2023/12/01 12:56:29;;;;;;;0.00;0.00;;;1.20;84.00;;;;;;4991385;28;20046;-69